Cayo Largo del Sur, Cuba
Current Conditions -  °F | °C
As of 11:50 AM on Friday 31 Oct 2014 (Local Time) from MUVR Reporting Station
Few Clouds Few Clouds  
Wind Chill: 81°   Ceiling: Unl
Heat Index: 82°   Visibility: 6mi
Dew Point: 64°   Wind: 5mph
Humidity: 58%   Direction: 240°WSW
Pressure: 29.91"   Gusts: NA
Location:  21.63°N, 81.47°W
Report Text: MUVR 311550Z 24004KT 160V290 9999 FEW025 27/18 Q1013
Loading
Personal Weather Stations






























Interactive Weather Map
Tropical Storm Tracking
New forecast layout! Learn more

10-Day Weather Forecast

Advertisements
Track Severe Weather on mobile